sensor_id;sensor_type;location;lat;lon;timestamp;temperature;humidity
34815;DHT22;21030;53.912;15.214;2023-09-19T00:00:39;38.10;33.30
34815;DHT22;21030;53.912;15.214;2023-09-19T05:25:10;34.10;38.30
34815;DHT22;21030;53.912;15.214;2023-09-19T05:27:53;33.80;38.80
34815;DHT22;21030;53.912;15.214;2023-09-19T05:30:20;33.70;38.80
34815;DHT22;21030;53.912;15.214;2023-09-19T05:32:47;33.60;38.90
34815;DHT22;21030;53.912;15.214;2023-09-19T05:35:14;32.80;39.80
34815;DHT22;21030;53.912;15.214;2023-09-19T05:37:41;33.00;39.90
34815;DHT22;21030;53.912;15.214;2023-09-19T05:40:09;33.10;40.10
34815;DHT22;21030;53.912;15.214;2023-09-19T05:42:38;33.10;39.70
34815;DHT22;21030;53.912;15.214;2023-09-19T05:45:08;33.00;40.10
34815;DHT22;21030;53.912;15.214;2023-09-19T05:47:42;33.00;39.90
34815;DHT22;21030;53.912;15.214;2023-09-19T05:50:12;32.60;40.40
34815;DHT22;21030;53.912;15.214;2023-09-19T05:52:39;32.80;41.30
34815;DHT22;21030;53.912;15.214;2023-09-19T05:55:08;32.90;40.20
34815;DHT22;21030;53.912;15.214;2023-09-19T05:57:35;33.70;39.30
34815;DHT22;21030;53.912;15.214;2023-09-19T06:00:02;33.80;38.80
34815;DHT22;21030;53.912;15.214;2023-09-19T06:02:36;34.50;37.80
34815;DHT22;21030;53.912;15.214;2023-09-19T06:05:07;34.50;37.60
34815;DHT22;21030;53.912;15.214;2023-09-19T06:07:37;34.40;37.40
34815;DHT22;21030;53.912;15.214;2023-09-19T06:10:04;34.30;37.30
34815;DHT22;21030;53.912;15.214;2023-09-19T06:12:40;34.20;37.40
34815;DHT22;21030;53.912;15.214;2023-09-19T06:15:11;34.70;37.10
34815;DHT22;21030;53.912;15.214;2023-09-19T06:17:57;35.30;36.10
34815;DHT22;21030;53.912;15.214;2023-09-19T06:20:25;35.20;35.50
34815;DHT22;21030;53.912;15.214;2023-09-19T06:22:53;34.70;36.00
34815;DHT22;21030;53.912;15.214;2023-09-19T06:25:21;34.90;36.10
34815;DHT22;21030;53.912;15.214;2023-09-19T06:27:53;34.90;35.30
34815;DHT22;21030;53.912;15.214;2023-09-19T06:30:21;35.20;34.90
34815;DHT22;21030;53.912;15.214;2023-09-19T06:32:48;35.60;34.50
34815;DHT22;21030;53.912;15.214;2023-09-19T06:35:16;35.80;34.30
34815;DHT22;21030;53.912;15.214;2023-09-19T06:37:43;35.30;34.10
34815;DHT22;21030;53.912;15.214;2023-09-19T06:40:14;35.20;34.60
34815;DHT22;21030;53.912;15.214;2023-09-19T06:42:46;35.40;34.10
34815;DHT22;21030;53.912;15.214;2023-09-19T06:45:15;35.40;33.90
34815;DHT22;21030;53.912;15.214;2023-09-19T06:47:46;35.70;33.70
34815;DHT22;21030;53.912;15.214;2023-09-19T06:50:21;36.00;33.10
34815;DHT22;21030;53.912;15.214;2023-09-19T06:52:53;35.30;33.80
34815;DHT22;21030;53.912;15.214;2023-09-19T06:55:22;35.60;33.40
34815;DHT22;21030;53.912;15.214;2023-09-19T06:57:52;35.60;33.10
34815;DHT22;21030;53.912;15.214;2023-09-19T07:00:21;35.60;33.00
34815;DHT22;21030;53.912;15.214;2023-09-19T07:03:03;35.80;32.70
34815;DHT22;21030;53.912;15.214;2023-09-19T07:05:32;35.60;33.00
34815;DHT22;21030;53.912;15.214;2023-09-19T07:08:00;35.80;33.10
34815;DHT22;21030;53.912;15.214;2023-09-19T07:10:28;35.90;33.00
34815;DHT22;21030;53.912;15.214;2023-09-19T07:13:02;36.00;33.30
34815;DHT22;21030;53.912;15.214;2023-09-19T07:15:32;36.60;31.90
34815;DHT22;21030;53.912;15.214;2023-09-19T07:18:03;35.80;31.90
34815;DHT22;21030;53.912;15.214;2023-09-19T07:20:31;35.30;32.80
34815;DHT22;21030;53.912;15.214;2023-09-19T07:22:59;35.60;32.40
34815;DHT22;21030;53.912;15.214;2023-09-19T07:25:30;35.40;32.00
34815;DHT22;21030;53.912;15.214;2023-09-19T07:27:58;34.80;32.90
34815;DHT22;21030;53.912;15.214;2023-09-19T07:30:27;34.70;33.20
34815;DHT22;21030;53.912;15.214;2023-09-19T07:32:56;34.40;33.30
34815;DHT22;21030;53.912;15.214;2023-09-19T07:35:23;34.60;33.40
34815;DHT22;21030;53.912;15.214;2023-09-19T07:37:50;34.70;33.20
34815;DHT22;21030;53.912;15.214;2023-09-19T07:40:19;35.00;33.00
34815;DHT22;21030;53.912;15.214;2023-09-19T07:42:48;35.80;31.80
34815;DHT22;21030;53.912;15.214;2023-09-19T07:45:15;35.80;31.50
34815;DHT22;21030;53.912;15.214;2023-09-19T07:47:45;35.80;31.60
34815;DHT22;21030;53.912;15.214;2023-09-19T07:50:13;35.60;31.30
34815;DHT22;21030;53.912;15.214;2023-09-19T07:52:42;35.90;31.10
34815;DHT22;21030;53.912;15.214;2023-09-19T07:55:09;36.50;30.80
34815;DHT22;21030;53.912;15.214;2023-09-19T07:57:38;37.50;29.80
34815;DHT22;21030;53.912;15.214;2023-09-19T08:00:05;38.20;29.10
34815;DHT22;21030;53.912;15.214;2023-09-19T08:02:37;38.20;28.70
34815;DHT22;21030;53.912;15.214;2023-09-19T08:05:11;37.90;28.60
34815;DHT22;21030;53.912;15.214;2023-09-19T08:07:40;37.90;28.90
34815;DHT22;21030;53.912;15.214;2023-09-19T08:10:08;38.10;28.80
34815;DHT22;21030;53.912;15.214;2023-09-19T08:12:40;38.80;28.30
34815;DHT22;21030;53.912;15.214;2023-09-19T08:15:17;39.00;27.80
34815;DHT22;21030;53.912;15.214;2023-09-19T08:17:47;39.40;27.30
34815;DHT22;21030;53.912;15.214;2023-09-19T08:20:14;39.50;26.70
34815;DHT22;21030;53.912;15.214;2023-09-19T08:22:47;39.40;26.90
34815;DHT22;21030;53.912;15.214;2023-09-19T08:25:15;39.30;26.80
34815;DHT22;21030;53.912;15.214;2023-09-19T08:27:46;38.90;26.80
34815;DHT22;21030;53.912;15.214;2023-09-19T08:30:20;37.70;26.90
34815;DHT22;21030;53.912;15.214;2023-09-19T08:32:57;37.60;27.50
34815;DHT22;21030;53.912;15.214;2023-09-19T08:35:28;37.60;27.20
34815;DHT22;21030;53.912;15.214;2023-09-19T08:37:56;36.90;27.60
34815;DHT22;21030;53.912;15.214;2023-09-19T08:40:23;36.50;28.40
34815;DHT22;21030;53.912;15.214;2023-09-19T08:42:55;37.10;28.50
34815;DHT22;21030;53.912;15.214;2023-09-19T08:45:24;37.40;27.60
34815;DHT22;21030;53.912;15.214;2023-09-19T08:48:22;37.60;27.60
34815;DHT22;21030;53.912;15.214;2023-09-19T08:50:53;38.60;27.10
34815;DHT22;21030;53.912;15.214;2023-09-19T08:56:10;38.30;26.30
34815;DHT22;21030;53.912;15.214;2023-09-19T08:58:49;38.70;26.10
34815;DHT22;21030;53.912;15.214;2023-09-19T09:01:18;38.60;25.70
34815;DHT22;21030;53.912;15.214;2023-09-19T09:03:53;38.50;25.90
34815;DHT22;21030;53.912;15.214;2023-09-19T09:06:21;38.10;26.00
34815;DHT22;21030;53.912;15.214;2023-09-19T09:08:50;38.20;25.80
34815;DHT22;21030;53.912;15.214;2023-09-19T09:11:18;38.10;25.70
34815;DHT22;21030;53.912;15.214;2023-09-19T09:13:46;38.00;25.90
34815;DHT22;21030;53.912;15.214;2023-09-19T09:16:14;37.40;26.10
34815;DHT22;21030;53.912;15.214;2023-09-19T09:18:46;37.10;26.90
34815;DHT22;21030;53.912;15.214;2023-09-19T09:21:21;37.30;27.00
34815;DHT22;21030;53.912;15.214;2023-09-19T09:23:50;37.20;26.40
34815;DHT22;21030;53.912;15.214;2023-09-19T09:29:07;36.70;26.30
34815;DHT22;21030;53.912;15.214;2023-09-19T09:31:34;36.60;26.30
34815;DHT22;21030;53.912;15.214;2023-09-19T09:34:01;36.10;26.80
34815;DHT22;21030;53.912;15.214;2023-09-19T09:36:39;36.40;25.70
34815;DHT22;21030;53.912;15.214;2023-09-19T09:39:08;36.20;26.30
34815;DHT22;21030;53.912;15.214;2023-09-19T09:41:52;36.40;26.10
34815;DHT22;21030;53.912;15.214;2023-09-19T09:44:19;36.50;25.70
34815;DHT22;21030;53.912;15.214;2023-09-19T09:46:48;36.30;26.10
34815;DHT22;21030;53.912;15.214;2023-09-19T09:49:27;37.00;25.50
34815;DHT22;21030;53.912;15.214;2023-09-19T09:52:10;36.80;25.70
34815;DHT22;21030;53.912;15.214;2023-09-19T09:55:02;36.70;26.30
34815;DHT22;21030;53.912;15.214;2023-09-19T09:57:33;36.80;26.10
34815;DHT22;21030;53.912;15.214;2023-09-19T10:00:02;37.10;25.60
34815;DHT22;21030;53.912;15.214;2023-09-19T10:02:38;38.00;25.70
34815;DHT22;21030;53.912;15.214;2023-09-19T10:05:17;39.40;24.50
34815;DHT22;21030;53.912;15.214;2023-09-19T10:07:49;39.90;23.40
34815;DHT22;21030;53.912;15.214;2023-09-19T10:10:34;39.80;22.50
34815;DHT22;21030;53.912;15.214;2023-09-19T10:13:09;39.30;22.90
34815;DHT22;21030;53.912;15.214;2023-09-19T10:15:39;39.20;23.20
34815;DHT22;21030;53.912;15.214;2023-09-19T10:18:14;38.30;23.90
34815;DHT22;21030;53.912;15.214;2023-09-19T10:20:46;38.30;24.30
34815;DHT22;21030;53.912;15.214;2023-09-19T10:23:15;38.80;24.40
34815;DHT22;21030;53.912;15.214;2023-09-19T10:25:49;39.20;23.50
34815;DHT22;21030;53.912;15.214;2023-09-19T10:28:18;39.60;23.00
34815;DHT22;21030;53.912;15.214;2023-09-19T10:30:50;39.70;22.70
34815;DHT22;21030;53.912;15.214;2023-09-19T10:33:20;39.10;22.50
34815;DHT22;21030;53.912;15.214;2023-09-19T10:35:50;38.80;22.90
34815;DHT22;21030;53.912;15.214;2023-09-19T10:38:25;38.80;23.10
34815;DHT22;21030;53.912;15.214;2023-09-19T10:40:56;39.20;22.80
34815;DHT22;21030;53.912;15.214;2023-09-19T10:43:32;39.90;22.40
34815;DHT22;21030;53.912;15.214;2023-09-19T10:46:07;39.90;21.60
34815;DHT22;21030;53.912;15.214;2023-09-19T10:48:35;39.30;21.60
34815;DHT22;21030;53.912;15.214;2023-09-19T10:51:09;39.50;21.80
34815;DHT22;21030;53.912;15.214;2023-09-19T10:56:37;40.50;21.20
34815;DHT22;21030;53.912;15.214;2023-09-19T10:59:10;40.30;21.40
34815;DHT22;21030;53.912;15.214;2023-09-19T11:01:56;40.30;21.30
34815;DHT22;21030;53.912;15.214;2023-09-19T11:07:14;40.70;21.40
34815;DHT22;21030;53.912;15.214;2023-09-19T11:15:03;41.10;20.90
34815;DHT22;21030;53.912;15.214;2023-09-19T11:17:39;41.10;20.60
34815;DHT22;21030;53.912;15.214;2023-09-19T11:30:48;41.20;20.30
34815;DHT22;21030;53.912;15.214;2023-09-19T11:33:31;41.40;20.20
34815;DHT22;21030;53.912;15.214;2023-09-19T11:46:34;38.20;21.40
34815;DHT22;21030;53.912;15.214;2023-09-19T11:49:07;37.40;23.10
34815;DHT22;21030;53.912;15.214;2023-09-19T11:51:43;37.20;23.10
34815;DHT22;21030;53.912;15.214;2023-09-19T11:54:13;37.40;23.10
34815;DHT22;21030;53.912;15.214;2023-09-19T11:56:46;38.30;22.40
34815;DHT22;21030;53.912;15.214;2023-09-19T11:59:23;38.60;22.40
34815;DHT22;21030;53.912;15.214;2023-09-19T12:01:55;40.00;21.90
34815;DHT22;21030;53.912;15.214;2023-09-19T12:04:35;40.70;20.90
34815;DHT22;21030;53.912;15.214;2023-09-19T12:07:09;41.20;20.20
34815;DHT22;21030;53.912;15.214;2023-09-19T12:09:48;41.10;20.20
34815;DHT22;21030;53.912;15.214;2023-09-19T12:12:24;40.90;20.30
34815;DHT22;21030;53.912;15.214;2023-09-19T12:14:56;40.80;20.20
34815;DHT22;21030;53.912;15.214;2023-09-19T12:17:39;41.50;20.20
34815;DHT22;21030;53.912;15.214;2023-09-19T12:20:10;41.20;20.10
34815;DHT22;21030;53.912;15.214;2023-09-19T12:22:45;41.70;20.20
34815;DHT22;21030;53.912;15.214;2023-09-19T12:25:14;41.00;20.40
34815;DHT22;21030;53.912;15.214;2023-09-19T12:27:44;40.70;20.60
34815;DHT22;21030;53.912;15.214;2023-09-19T12:30:15;40.80;20.70
34815;DHT22;21030;53.912;15.214;2023-09-19T12:32:47;40.80;20.80
34815;DHT22;21030;53.912;15.214;2023-09-19T12:35:30;40.20;21.00
34815;DHT22;21030;53.912;15.214;2023-09-19T12:38:03;39.30;22.00
34815;DHT22;21030;53.912;15.214;2023-09-19T12:40:31;39.50;21.60
34815;DHT22;21030;53.912;15.214;2023-09-19T12:43:01;38.70;22.00
34815;DHT22;21030;53.912;15.214;2023-09-19T12:45:32;38.60;22.00
34815;DHT22;21030;53.912;15.214;2023-09-19T12:48:37;38.10;22.00
34815;DHT22;21030;53.912;15.214;2023-09-19T12:51:11;38.60;22.20
34815;DHT22;21030;53.912;15.214;2023-09-19T12:53:44;38.90;21.50
34815;DHT22;21030;53.912;15.214;2023-09-19T12:56:14;38.50;21.90
34815;DHT22;21030;53.912;15.214;2023-09-19T12:58:58;37.90;22.40
34815;DHT22;21030;53.912;15.214;2023-09-19T13:01:29;37.60;22.50
34815;DHT22;21030;53.912;15.214;2023-09-19T13:06:49;38.40;22.20
34815;DHT22;21030;53.912;15.214;2023-09-19T13:09:18;38.50;22.30
34815;DHT22;21030;53.912;15.214;2023-09-19T13:11:48;38.30;22.20
34815;DHT22;21030;53.912;15.214;2023-09-19T13:17:06;37.90;22.40
34815;DHT22;21030;53.912;15.214;2023-09-19T13:19:50;38.60;22.70
34815;DHT22;21030;53.912;15.214;2023-09-19T13:22:41;38.40;22.10
34815;DHT22;21030;53.912;15.214;2023-09-19T13:25:18;38.20;22.30
34815;DHT22;21030;53.912;15.214;2023-09-19T13:27:52;38.30;22.30
34815;DHT22;21030;53.912;15.214;2023-09-19T13:30:21;38.50;22.00
34815;DHT22;21030;53.912;15.214;2023-09-19T13:32:49;38.00;22.60
34815;DHT22;21030;53.912;15.214;2023-09-19T13:35:17;38.70;22.30
34815;DHT22;21030;53.912;15.214;2023-09-19T13:37:46;38.40;22.30
34815;DHT22;21030;53.912;15.214;2023-09-19T13:40:16;37.70;22.40
34815;DHT22;21030;53.912;15.214;2023-09-19T13:42:43;37.90;22.80
34815;DHT22;21030;53.912;15.214;2023-09-19T13:45:11;38.20;22.80
34815;DHT22;21030;53.912;15.214;2023-09-19T13:47:40;38.40;22.30
34815;DHT22;21030;53.912;15.214;2023-09-19T13:50:08;38.00;22.50
34815;DHT22;21030;53.912;15.214;2023-09-19T13:52:36;37.90;22.30
34815;DHT22;21030;53.912;15.214;2023-09-19T13:55:03;37.50;22.40
34815;DHT22;21030;53.912;15.214;2023-09-19T13:57:32;36.90;23.20
34815;DHT22;21030;53.912;15.214;2023-09-19T14:00:00;36.80;23.20
34815;DHT22;21030;53.912;15.214;2023-09-19T14:02:27;37.30;23.30
34815;DHT22;21030;53.912;15.214;2023-09-19T14:04:55;38.00;23.00
34815;DHT22;21030;53.912;15.214;2023-09-19T14:07:22;37.80;23.00
34815;DHT22;21030;53.912;15.214;2023-09-19T14:09:49;37.70;23.10
34815;DHT22;21030;53.912;15.214;2023-09-19T14:12:17;38.00;23.10
34815;DHT22;21030;53.912;15.214;2023-09-19T14:14:44;37.60;23.10
34815;DHT22;21030;53.912;15.214;2023-09-19T14:17:12;37.60;23.30
34815;DHT22;21030;53.912;15.214;2023-09-19T14:19:41;37.70;23.20
34815;DHT22;21030;53.912;15.214;2023-09-19T14:22:12;38.00;23.50
34815;DHT22;21030;53.912;15.214;2023-09-19T14:24:41;37.70;23.20
34815;DHT22;21030;53.912;15.214;2023-09-19T14:27:09;37.40;23.60
34815;DHT22;21030;53.912;15.214;2023-09-19T14:29:38;37.30;23.80
34815;DHT22;21030;53.912;15.214;2023-09-19T14:32:06;37.50;23.60
34815;DHT22;21030;53.912;15.214;2023-09-19T14:34:33;37.40;23.80
34815;DHT22;21030;53.912;15.214;2023-09-19T14:37:00;37.60;23.80
34815;DHT22;21030;53.912;15.214;2023-09-19T14:39:27;37.80;23.70
34815;DHT22;21030;53.912;15.214;2023-09-19T14:41:55;38.10;23.40
34815;DHT22;21030;53.912;15.214;2023-09-19T14:44:22;38.10;23.50
34815;DHT22;21030;53.912;15.214;2023-09-19T14:46:49;37.80;23.70
34815;DHT22;21030;53.912;15.214;2023-09-19T14:49:16;37.90;24.00
34815;DHT22;21030;53.912;15.214;2023-09-19T14:51:43;37.80;24.00
34815;DHT22;21030;53.912;15.214;2023-09-19T14:54:16;38.00;24.50
34815;DHT22;21030;53.912;15.214;2023-09-19T14:56:45;38.10;24.00
34815;DHT22;21030;53.912;15.214;2023-09-19T14:59:20;37.50;24.70
34815;DHT22;21030;53.912;15.214;2023-09-19T15:01:47;37.30;24.10
34815;DHT22;21030;53.912;15.214;2023-09-19T15:04:17;36.80;24.70
34815;DHT22;21030;53.912;15.214;2023-09-19T15:06:44;37.20;24.60
34815;DHT22;21030;53.912;15.214;2023-09-19T15:09:13;37.20;24.50
34815;DHT22;21030;53.912;15.214;2023-09-19T15:11:40;37.40;24.60
34815;DHT22;21030;53.912;15.214;2023-09-19T15:14:07;37.80;24.20
34815;DHT22;21030;53.912;15.214;2023-09-19T15:16:34;37.20;24.50
34815;DHT22;21030;53.912;15.214;2023-09-19T15:19:03;37.20;24.80
34815;DHT22;21030;53.912;15.214;2023-09-19T15:21:30;36.90;24.80
34815;DHT22;21030;53.912;15.214;2023-09-19T15:23:57;36.80;25.00
34815;DHT22;21030;53.912;15.214;2023-09-19T15:26:24;37.10;24.90
34815;DHT22;21030;53.912;15.214;2023-09-19T15:28:52;37.10;25.00
34815;DHT22;21030;53.912;15.214;2023-09-19T15:31:21;36.90;25.30
34815;DHT22;21030;53.912;15.214;2023-09-19T15:33:48;36.90;25.40
34815;DHT22;21030;53.912;15.214;2023-09-19T15:36:16;37.20;25.30
34815;DHT22;21030;53.912;15.214;2023-09-19T15:39:04;37.20;25.10
34815;DHT22;21030;53.912;15.214;2023-09-19T15:41:39;37.40;25.00
34815;DHT22;21030;53.912;15.214;2023-09-19T15:44:14;37.30;24.90
34815;DHT22;21030;53.912;15.214;2023-09-19T15:46:42;37.30;25.10
34815;DHT22;21030;53.912;15.214;2023-09-19T15:49:11;36.90;25.40
34815;DHT22;21030;53.912;15.214;2023-09-19T15:51:38;36.90;25.70
34815;DHT22;21030;53.912;15.214;2023-09-19T15:54:12;36.70;25.70
34815;DHT22;21030;53.912;15.214;2023-09-19T15:56:43;36.80;25.60
34815;DHT22;21030;53.912;15.214;2023-09-19T15:59:11;36.40;26.00
34815;DHT22;21030;53.912;15.214;2023-09-19T16:01:40;36.20;26.30
34815;DHT22;21030;53.912;15.214;2023-09-19T16:04:11;36.00;26.30
34815;DHT22;21030;53.912;15.214;2023-09-19T16:06:40;36.10;26.30
34815;DHT22;21030;53.912;15.214;2023-09-19T16:09:10;35.80;26.30
34815;DHT22;21030;53.912;15.214;2023-09-19T16:11:38;35.40;26.40
34815;DHT22;21030;53.912;15.214;2023-09-19T16:14:05;35.50;26.50
34815;DHT22;21030;53.912;15.214;2023-09-19T16:16:37;35.40;26.70
34815;DHT22;21030;53.912;15.214;2023-09-19T16:19:05;34.90;26.90
34815;DHT22;21030;53.912;15.214;2023-09-19T16:21:37;34.70;27.00
34815;DHT22;21030;53.912;15.214;2023-09-19T16:24:10;34.70;27.20
34815;DHT22;21030;53.912;15.214;2023-09-19T16:26:37;34.10;27.50
34815;DHT22;21030;53.912;15.214;2023-09-19T16:29:05;34.00;27.60
34815;DHT22;21030;53.912;15.214;2023-09-19T16:31:33;34.10;27.60
34815;DHT22;21030;53.912;15.214;2023-09-19T16:34:01;34.30;27.30
34815;DHT22;21030;53.912;15.214;2023-09-19T16:36:28;34.30;27.20
34815;DHT22;21030;53.912;15.214;2023-09-19T16:38:59;34.50;27.00
34815;DHT22;21030;53.912;15.214;2023-09-19T16:41:27;34.20;27.10
34815;DHT22;21030;53.912;15.214;2023-09-19T16:43:54;33.80;27.60
34815;DHT22;21030;53.912;15.214;2023-09-19T16:46:21;33.90;27.50
34815;DHT22;21030;53.912;15.214;2023-09-19T16:48:48;33.30;27.90
34815;DHT22;21030;53.912;15.214;2023-09-19T16:51:31;33.10;27.90
34815;DHT22;21030;53.912;15.214;2023-09-19T16:54:01;33.30;27.90
34815;DHT22;21030;53.912;15.214;2023-09-19T16:56:29;33.40;27.80
34815;DHT22;21030;53.912;15.214;2023-09-19T16:59:00;33.40;27.70
34815;DHT22;21030;53.912;15.214;2023-09-19T17:01:28;32.90;28.00
34815;DHT22;21030;53.912;15.214;2023-09-19T17:03:56;33.10;27.90
34815;DHT22;21030;53.912;15.214;2023-09-19T17:06:24;32.90;28.00
34815;DHT22;21030;53.912;15.214;2023-09-19T17:08:52;32.80;28.00
34815;DHT22;21030;53.912;15.214;2023-09-19T17:11:19;32.90;27.90
34815;DHT22;21030;53.912;15.214;2023-09-19T17:13:50;32.80;28.00
34815;DHT22;21030;53.912;15.214;2023-09-19T17:16:18;32.80;28.10
34815;DHT22;21030;53.912;15.214;2023-09-19T17:18:51;32.80;28.00
34815;DHT22;21030;53.912;15.214;2023-09-19T17:21:20;32.50;28.20
34815;DHT22;21030;53.912;15.214;2023-09-19T17:23:47;32.70;28.20
34815;DHT22;21030;53.912;15.214;2023-09-19T17:26:15;32.60;28.10
34815;DHT22;21030;53.912;15.214;2023-09-19T17:28:49;32.50;28.10
34815;DHT22;21030;53.912;15.214;2023-09-19T17:31:18;32.60;28.00
34815;DHT22;21030;53.912;15.214;2023-09-19T17:33:47;32.30;28.10
34815;DHT22;21030;53.912;15.214;2023-09-19T17:36:20;32.10;28.10
34815;DHT22;21030;53.912;15.214;2023-09-19T17:38:57;32.00;28.30
34815;DHT22;21030;53.912;15.214;2023-09-19T17:41:25;31.60;28.80
34815;DHT22;21030;53.912;15.214;2023-09-19T17:43:55;31.70;28.80
34815;DHT22;21030;53.912;15.214;2023-09-19T17:46:22;31.80;28.70
34815;DHT22;21030;53.912;15.214;2023-09-19T17:48:58;32.10;28.40
34815;DHT22;21030;53.912;15.214;2023-09-19T17:51:27;32.30;28.10
34815;DHT22;21030;53.912;15.214;2023-09-19T17:53:55;32.00;28.10
34815;DHT22;21030;53.912;15.214;2023-09-19T17:56:27;32.10;28.20
34815;DHT22;21030;53.912;15.214;2023-09-19T17:58:54;32.20;28.00
34815;DHT22;21030;53.912;15.214;2023-09-19T18:01:24;32.30;27.90
34815;DHT22;21030;53.912;15.214;2023-09-19T18:03:56;32.30;27.80
34815;DHT22;21030;53.912;15.214;2023-09-19T18:06:26;32.30;27.90
34815;DHT22;21030;53.912;15.214;2023-09-19T18:08:54;32.40;27.80
34815;DHT22;21030;53.912;15.214;2023-09-19T18:11:23;32.80;27.60
34815;DHT22;21030;53.912;15.214;2023-09-19T18:13:56;32.80;27.50
34815;DHT22;21030;53.912;15.214;2023-09-19T18:16:26;32.20;27.90
34815;DHT22;21030;53.912;15.214;2023-09-19T18:18:59;32.10;28.10
34815;DHT22;21030;53.912;15.214;2023-09-19T18:21:34;32.00;28.40
34815;DHT22;21030;53.912;15.214;2023-09-19T18:24:01;32.50;28.10
34815;DHT22;21030;53.912;15.214;2023-09-19T18:26:32;32.30;27.80
34815;DHT22;21030;53.912;15.214;2023-09-19T18:29:00;32.40;28.00
34815;DHT22;21030;53.912;15.214;2023-09-19T18:31:27;32.30;28.00
34815;DHT22;21030;53.912;15.214;2023-09-19T18:33:55;32.50;28.00
34815;DHT22;21030;53.912;15.214;2023-09-19T18:36:23;32.70;28.30
34815;DHT22;21030;53.912;15.214;2023-09-19T18:38:50;32.90;27.70
34815;DHT22;21030;53.912;15.214;2023-09-19T18:41:19;33.20;27.40
34815;DHT22;21030;53.912;15.214;2023-09-19T18:43:47;34.00;26.80
34815;DHT22;21030;53.912;15.214;2023-09-19T18:46:15;34.10;26.60
34815;DHT22;21030;53.912;15.214;2023-09-19T18:48:44;34.10;26.60
34815;DHT22;21030;53.912;15.214;2023-09-19T18:51:13;34.20;26.70
34815;DHT22;21030;53.912;15.214;2023-09-19T18:53:42;34.30;26.50
34815;DHT22;21030;53.912;15.214;2023-09-19T18:56:22;34.00;26.60
34815;DHT22;21030;53.912;15.214;2023-09-19T18:58:52;34.10;26.60
34815;DHT22;21030;53.912;15.214;2023-09-19T19:01:19;34.00;26.60
34815;DHT22;21030;53.912;15.214;2023-09-19T19:03:52;34.00;26.70
34815;DHT22;21030;53.912;15.214;2023-09-19T19:06:19;34.00;26.90
34815;DHT22;21030;53.912;15.214;2023-09-19T19:08:48;33.90;26.70
34815;DHT22;21030;53.912;15.214;2023-09-19T19:11:18;33.90;26.70
34815;DHT22;21030;53.912;15.214;2023-09-19T19:13:51;34.30;26.50
34815;DHT22;21030;53.912;15.214;2023-09-19T19:16:19;34.30;26.30
34815;DHT22;21030;53.912;15.214;2023-09-19T19:18:47;34.00;26.30
34815;DHT22;21030;53.912;15.214;2023-09-19T19:21:16;34.20;26.50
34815;DHT22;21030;53.912;15.214;2023-09-19T19:23:43;34.20;26.50
34815;DHT22;21030;53.912;15.214;2023-09-19T19:26:10;33.50;27.00
34815;DHT22;21030;53.912;15.214;2023-09-19T19:28:41;33.60;27.30
34815;DHT22;21030;53.912;15.214;2023-09-19T19:31:10;34.00;26.80
34815;DHT22;21030;53.912;15.214;2023-09-19T19:33:38;33.80;26.80
34815;DHT22;21030;53.912;15.214;2023-09-19T19:36:07;33.40;27.80
34815;DHT22;21030;53.912;15.214;2023-09-19T19:38:35;33.60;27.20
34815;DHT22;21030;53.912;15.214;2023-09-19T19:41:04;33.00;27.50
34815;DHT22;21030;53.912;15.214;2023-09-19T19:43:32;32.60;28.10
34815;DHT22;21030;53.912;15.214;2023-09-19T19:46:00;32.70;28.30
34815;DHT22;21030;53.912;15.214;2023-09-19T19:48:28;32.80;28.10
34815;DHT22;21030;53.912;15.214;2023-09-19T19:50:56;33.00;27.90
34815;DHT22;21030;53.912;15.214;2023-09-19T19:53:24;33.50;27.50
34815;DHT22;21030;53.912;15.214;2023-09-19T19:55:51;33.70;27.40
34815;DHT22;21030;53.912;15.214;2023-09-19T19:58:19;33.30;27.50
34815;DHT22;21030;53.912;15.214;2023-09-19T20:00:49;33.30;27.60
34815;DHT22;21030;53.912;15.214;2023-09-19T20:03:16;33.50;27.60
34815;DHT22;21030;53.912;15.214;2023-09-19T20:05:44;33.90;27.00
34815;DHT22;21030;53.912;15.214;2023-09-19T20:08:13;34.40;26.70
34815;DHT22;21030;53.912;15.214;2023-09-19T20:10:40;34.40;26.50
34815;DHT22;21030;53.912;15.214;2023-09-19T20:13:07;34.30;26.50
34815;DHT22;21030;53.912;15.214;2023-09-19T20:15:39;34.50;26.30
34815;DHT22;21030;53.912;15.214;2023-09-19T20:18:07;34.70;26.20
34815;DHT22;21030;53.912;15.214;2023-09-19T20:20:40;35.00;25.80
34815;DHT22;21030;53.912;15.214;2023-09-19T20:23:07;35.10;25.80
34815;DHT22;21030;53.912;15.214;2023-09-19T20:25:34;35.30;25.50
34815;DHT22;21030;53.912;15.214;2023-09-19T20:28:03;35.30;25.60
34815;DHT22;21030;53.912;15.214;2023-09-19T20:30:30;35.10;25.70
34815;DHT22;21030;53.912;15.214;2023-09-19T20:32:58;35.30;25.40
34815;DHT22;21030;53.912;15.214;2023-09-19T20:35:29;35.00;25.60
34815;DHT22;21030;53.912;15.214;2023-09-19T20:37:56;34.70;25.90
34815;DHT22;21030;53.912;15.214;2023-09-19T20:40:27;34.80;25.90
34815;DHT22;21030;53.912;15.214;2023-09-19T20:42:54;35.10;25.40
34815;DHT22;21030;53.912;15.214;2023-09-19T20:45:21;35.10;25.40
34815;DHT22;21030;53.912;15.214;2023-09-19T20:47:50;35.00;25.60
34815;DHT22;21030;53.912;15.214;2023-09-19T20:50:19;34.70;25.70
34815;DHT22;21030;53.912;15.214;2023-09-19T20:52:46;35.00;25.40
34815;DHT22;21030;53.912;15.214;2023-09-19T20:55:13;34.90;25.60
34815;DHT22;21030;53.912;15.214;2023-09-19T20:57:40;34.70;25.80
34815;DHT22;21030;53.912;15.214;2023-09-19T21:00:08;34.80;25.70
34815;DHT22;21030;53.912;15.214;2023-09-19T21:02:38;35.10;25.60
34815;DHT22;21030;53.912;15.214;2023-09-19T21:05:05;35.00;25.60
34815;DHT22;21030;53.912;15.214;2023-09-19T21:07:33;34.70;25.70
34815;DHT22;21030;53.912;15.214;2023-09-19T21:10:00;34.80;25.60
34815;DHT22;21030;53.912;15.214;2023-09-19T21:12:28;34.40;26.00
34815;DHT22;21030;53.912;15.214;2023-09-19T21:14:55;34.20;26.50
34815;DHT22;21030;53.912;15.214;2023-09-19T21:17:28;34.30;26.30
34815;DHT22;21030;53.912;15.214;2023-09-19T21:19:56;34.00;26.60
34815;DHT22;21030;53.912;15.214;2023-09-19T21:22:23;34.30;26.70
34815;DHT22;21030;53.912;15.214;2023-09-19T21:24:53;34.60;26.30
34815;DHT22;21030;53.912;15.214;2023-09-19T21:27:22;34.70;26.20
34815;DHT22;21030;53.912;15.214;2023-09-19T21:29:49;35.10;25.70
34815;DHT22;21030;53.912;15.214;2023-09-19T21:32:17;35.10;25.70
34815;DHT22;21030;53.912;15.214;2023-09-19T21:34:44;34.90;25.90
34815;DHT22;21030;53.912;15.214;2023-09-19T21:37:11;35.00;25.80
34815;DHT22;21030;53.912;15.214;2023-09-19T21:39:41;34.90;26.00